createdAt,value
2022-10-27T00:03:36.204Z,4.40
2022-10-27T00:13:39.801Z,4.30
2022-10-27T00:23:44.824Z,3.58
2022-10-27T00:33:49.839Z,4.60
2022-10-27T00:43:54.165Z,4.50
2022-10-27T00:53:57.314Z,4.10
2022-10-27T01:04:01.643Z,4.03
2022-10-27T01:14:04.896Z,4.57
2022-10-27T01:24:35.683Z,4.60
2022-10-27T01:34:47.500Z,4.18
2022-10-27T01:44:55.248Z,4.18
2022-10-27T01:54:59.629Z,3.85
2022-10-27T02:05:08.376Z,4.00
2022-10-27T02:15:22.376Z,4.45
2022-10-27T02:25:30.819Z,4.33
2022-10-27T02:35:35.714Z,4.18
2022-10-27T02:45:38.833Z,5.05
2022-10-27T02:55:43.146Z,4.60
2022-10-27T03:05:48.277Z,5.20
2022-10-27T03:15:53.413Z,4.93
2022-10-27T03:26:00.102Z,4.97
2022-10-27T03:36:04.794Z,5.28
2022-10-27T03:46:07.946Z,3.97
2022-10-27T03:56:14.513Z,4.03
2022-10-27T04:06:17.425Z,3.80
2022-10-27T04:16:21.849Z,3.92
2022-10-27T04:26:24.857Z,4.43
2022-10-27T04:36:30.385Z,4.05
2022-10-27T04:46:33.492Z,3.92
2022-10-27T04:56:37.762Z,4.63
2022-10-27T05:06:40.708Z,4.70
2022-10-27T05:16:45.005Z,4.43
2022-10-27T05:26:47.902Z,4.40
2022-10-27T05:36:52.243Z,4.43
2022-10-27T05:46:56.782Z,4.10
2022-10-27T05:57:01.049Z,3.97
2022-10-27T06:07:04.101Z,3.93
2022-10-27T06:17:08.443Z,4.53
2022-10-27T06:27:11.499Z,4.70
2022-10-27T06:37:15.850Z,3.72
2022-10-27T06:47:18.818Z,4.50
2022-10-27T07:07:31.039Z,4.70
2022-10-27T07:17:35.343Z,3.78
2022-10-27T07:27:38.283Z,4.77
2022-10-27T07:37:45.184Z,3.83
2022-10-27T07:47:49.615Z,4.20
2022-10-27T08:08:05.448Z,2.58
2022-10-27T08:18:10.984Z,2.15
2022-10-27T08:28:14.784Z,2.28
2022-10-27T08:38:19.743Z,1.80
2022-10-27T08:48:27.048Z,1.65
2022-10-27T08:58:38.480Z,1.40
2022-10-27T09:08:48.675Z,1.20
2022-10-27T09:18:58.424Z,1.25
2022-10-27T09:29:04.623Z,1.42
2022-10-27T09:39:10.096Z,1.35
2022-10-27T09:49:14.489Z,1.27
2022-10-27T10:09:29.195Z,1.42
2022-10-27T10:19:33.741Z,1.35
2022-10-27T10:29:46.449Z,1.60
2022-10-27T10:39:50.778Z,1.50
2022-10-27T10:49:57.594Z,1.50
2022-10-27T11:00:02.475Z,1.27
2022-10-27T11:10:11.476Z,1.73
2022-10-27T11:20:21.971Z,1.90
2022-10-27T11:30:27.974Z,1.90
2022-10-27T11:40:42.907Z,1.80
2022-10-27T11:50:51.858Z,2.33
2022-10-27T12:01:08.645Z,1.85
2022-10-27T12:11:27.507Z,1.92
2022-10-27T12:21:37.532Z,1.83
2022-10-27T12:31:45.341Z,2.17
2022-10-27T12:41:56.815Z,2.75
2022-10-27T12:52:24.251Z,2.22
2022-10-27T13:02:36.522Z,2.72
2022-10-27T13:12:56.555Z,2.25
2022-10-27T13:23:07.168Z,2.60
2022-10-27T13:33:31.644Z,2.60
2022-10-27T13:43:50.128Z,2.28
2022-10-27T13:53:55.659Z,2.15
2022-10-27T14:04:40.159Z,2.93
2022-10-27T14:14:45.311Z,2.72
2022-10-27T14:24:54.029Z,2.80
2022-10-27T14:34:56.951Z,2.97
2022-10-27T14:45:03.896Z,2.87
2022-10-27T14:55:18.409Z,2.85
2022-10-27T15:05:27.771Z,3.10
2022-10-27T15:15:33.342Z,3.20
2022-10-27T15:25:40.498Z,3.47
2022-10-27T15:35:44.824Z,3.40
2022-10-27T15:45:52.486Z,3.60
2022-10-27T15:56:00.902Z,3.55
2022-10-27T16:06:23.313Z,3.90
2022-10-27T16:16:27.354Z,3.45
2022-10-27T16:26:31.830Z,4.30
2022-10-27T16:36:34.930Z,4.80
2022-10-27T16:46:39.271Z,5.13
2022-10-27T16:56:42.182Z,4.38
2022-10-27T17:06:47.068Z,5.70
2022-10-27T17:16:50.226Z,5.00
2022-10-27T17:26:54.494Z,5.88
2022-10-27T17:47:02.243Z,6.53
2022-10-27T18:07:10.852Z,6.17
2022-10-27T18:27:18.057Z,6.72
2022-10-27T18:37:21.074Z,6.90
2022-10-27T18:47:25.358Z,10.98
2022-10-27T18:57:28.435Z,13.52
2022-10-27T19:07:32.777Z,12.43
2022-10-27T19:27:39.930Z,6.25
2022-10-27T19:47:48.836Z,6.55
2022-10-27T19:57:52.021Z,6.40
2022-10-27T20:07:56.746Z,6.33
2022-10-27T20:28:03.891Z,6.28
2022-10-27T20:48:11.791Z,6.43
2022-10-27T20:58:14.738Z,6.07
2022-10-27T21:08:20.919Z,5.78
2022-10-27T21:18:26.565Z,6.47
2022-10-27T21:28:30.909Z,6.33
2022-10-27T21:48:39.090Z,6.70
2022-10-27T22:08:46.903Z,6.60
2022-10-27T22:18:53.758Z,7.63
2022-10-27T22:28:58.041Z,7.50
2022-10-27T22:49:06.094Z,10.73
2022-10-27T23:09:17.391Z,10.13
2022-10-27T23:19:20.361Z,10.32
2022-10-27T23:29:24.621Z,10.55
2022-10-27T23:39:27.519Z,9.30
2022-10-27T23:49:31.749Z,10.35
2022-10-27T23:59:34.824Z,11.15
